OHDAD EFPO-EFMA
Flight info
| Callsign | OHDAD |
|---|---|
| Flight time | 1h 11m |
| Altitude | 9000 |
| Route | MALOP DCT ERAKO DCT UVOPA DCT OJANE DCT EFTU DCT OTKIL DCT SOTUP |
| Aircraft | DA42/L-SDFGRY/C |
Departure
| Time | 2026-04-29 17:03 |
|---|---|
| Airport | Pori Airport (EFPO) |
Arrival
| Time | 2026-04-29 18:15 |
|---|---|
| Airport | Mariehamn Airport (EFMA) |
| Time | Latitude | Longitude | Altitude | Speed | Heading |
|---|---|---|---|---|---|
| 2026-04-29 16:51 | 61.46050 | 21.78696 | 42 ft | 0 kts | 130° |
| 2026-04-29 16:59 | 61.46052 | 21.78752 | 41 ft | 5 kts | 73° |
| 2026-04-29 17:00 | 61.46017 | 21.78909 | 43 ft | 18 kts | 109° |
| 2026-04-29 17:00 | 61.46080 | 21.79077 | 43 ft | 16 kts | 42° |
| 2026-04-29 17:00 | 61.46166 | 21.79240 | 40 ft | 17 kts | 41° |
| 2026-04-29 17:00 | 61.46253 | 21.79404 | 40 ft | 16 kts | 42° |
| 2026-04-29 17:01 | 61.46299 | 21.79593 | 42 ft | 15 kts | 114° |
| 2026-04-29 17:01 | 61.46236 | 21.79787 | 41 ft | 17 kts | 125° |
| 2026-04-29 17:01 | 61.46169 | 21.79994 | 40 ft | 19 kts | 124° |
| 2026-04-29 17:01 | 61.46082 | 21.80290 | 39 ft | 17 kts | 93° |
| 2026-04-29 17:02 | 61.46060 | 21.80309 | 40 ft | 3 kts | 330° |
| 2026-04-29 17:02 | 61.46064 | 21.80302 | 40 ft | 0 kts | 308° |
| 2026-04-29 17:02 | 61.46109 | 21.80171 | 40 ft | 40 kts | 306° |
| 2026-04-29 17:02 | 61.46374 | 21.79413 | 93 ft | 80 kts | 303° |
| 2026-04-29 17:03 | 61.46706 | 21.78433 | 410 ft | 82 kts | 304° |
| 2026-04-29 17:03 | 61.46985 | 21.77420 | 800 ft | 80 kts | 279° |
| 2026-04-29 17:03 | 61.46818 | 21.76235 | 1026 ft | 95 kts | 238° |
| 2026-04-29 17:03 | 61.46283 | 21.75384 | 1288 ft | 101 kts | 205° |
| 2026-04-29 17:04 | 61.45570 | 21.75365 | 1549 ft | 108 kts | 166° |
| 2026-04-29 17:04 | 61.44889 | 21.76115 | 1815 ft | 112 kts | 154° |
| 2026-04-29 17:04 | 61.44203 | 21.76895 | 2077 ft | 113 kts | 156° |
| 2026-04-29 17:04 | 61.43501 | 21.77659 | 2350 ft | 114 kts | 157° |
| 2026-04-29 17:05 | 61.42792 | 21.78413 | 2633 ft | 115 kts | 157° |
| 2026-04-29 17:05 | 61.42076 | 21.79166 | 2917 ft | 116 kts | 157° |
| 2026-04-29 17:05 | 61.41351 | 21.79922 | 3194 ft | 117 kts | 157° |
| 2026-04-29 17:05 | 61.40617 | 21.80686 | 3464 ft | 119 kts | 157° |
| 2026-04-29 17:06 | 61.39872 | 21.81458 | 3728 ft | 120 kts | 156° |
| 2026-04-29 17:06 | 61.39117 | 21.82239 | 3997 ft | 122 kts | 156° |
| 2026-04-29 17:06 | 61.38355 | 21.83028 | 4259 ft | 123 kts | 155° |
| 2026-04-29 17:06 | 61.37585 | 21.83825 | 4515 ft | 124 kts | 155° |
| 2026-04-29 17:07 | 61.36807 | 21.84629 | 4739 ft | 126 kts | 155° |
| 2026-04-29 17:07 | 61.36017 | 21.85445 | 4995 ft | 127 kts | 154° |
| 2026-04-29 17:07 | 61.35230 | 21.86257 | 5238 ft | 128 kts | 154° |
| 2026-04-29 17:07 | 61.34427 | 21.87086 | 5480 ft | 129 kts | 154° |
| 2026-04-29 17:08 | 61.33617 | 21.87921 | 5724 ft | 131 kts | 154° |
| 2026-04-29 17:08 | 61.32798 | 21.88764 | 5963 ft | 132 kts | 154° |
| 2026-04-29 17:08 | 61.31972 | 21.89615 | 6221 ft | 133 kts | 154° |
| 2026-04-29 17:08 | 61.31139 | 21.90473 | 6470 ft | 134 kts | 154° |
| 2026-04-29 17:09 | 61.30297 | 21.91339 | 6715 ft | 135 kts | 153° |
| 2026-04-29 17:09 | 61.29450 | 21.92210 | 6951 ft | 136 kts | 153° |
| 2026-04-29 17:09 | 61.28598 | 21.93085 | 7191 ft | 137 kts | 153° |
| 2026-04-29 17:09 | 61.27742 | 21.93964 | 7426 ft | 137 kts | 153° |
| 2026-04-29 17:10 | 61.26882 | 21.94846 | 7665 ft | 138 kts | 153° |
| 2026-04-29 17:10 | 61.26017 | 21.95734 | 7905 ft | 139 kts | 153° |
| 2026-04-29 17:10 | 61.25150 | 21.96622 | 8147 ft | 139 kts | 153° |
| 2026-04-29 17:10 | 61.24223 | 21.97215 | 8391 ft | 140 kts | 167° |
| 2026-04-29 17:11 | 61.23278 | 21.97710 | 8642 ft | 141 kts | 167° |
| 2026-04-29 17:11 | 61.22324 | 21.98207 | 8888 ft | 142 kts | 167° |
| 2026-04-29 17:11 | 61.21364 | 21.98707 | 9144 ft | 143 kts | 167° |
| 2026-04-29 17:11 | 61.20399 | 21.99209 | 9396 ft | 143 kts | 167° |
| 2026-04-29 17:12 | 61.19429 | 21.99715 | 9645 ft | 144 kts | 167° |
| 2026-04-29 17:12 | 61.18456 | 22.00222 | 9905 ft | 145 kts | 166° |
| 2026-04-29 17:12 | 61.17476 | 22.00733 | 10156 ft | 146 kts | 166° |
| 2026-04-29 17:12 | 61.16822 | 22.01074 | 10294 ft | 149 kts | 166° |
| 2026-04-29 17:13 | 61.15387 | 22.01815 | 10311 ft | 170 kts | 166° |
| 2026-04-29 17:13 | 61.14201 | 22.02430 | 10313 ft | 181 kts | 166° |
| 2026-04-29 17:13 | 61.12959 | 22.03073 | 10311 ft | 184 kts | 166° |
| 2026-04-29 17:13 | 61.11716 | 22.03718 | 10311 ft | 184 kts | 166° |
| 2026-04-29 17:14 | 61.10477 | 22.04365 | 10314 ft | 183 kts | 166° |
| 2026-04-29 17:14 | 61.09241 | 22.05008 | 10314 ft | 183 kts | 166° |
| 2026-04-29 17:14 | 61.08004 | 22.05649 | 10322 ft | 183 kts | 166° |
| 2026-04-29 17:14 | 61.06764 | 22.06291 | 10320 ft | 184 kts | 166° |
| 2026-04-29 17:15 | 61.05527 | 22.06931 | 10318 ft | 183 kts | 166° |
| 2026-04-29 17:15 | 61.04289 | 22.07571 | 10317 ft | 183 kts | 166° |
| 2026-04-29 17:15 | 61.03050 | 22.08211 | 10312 ft | 183 kts | 166° |
| 2026-04-29 17:15 | 61.01813 | 22.08860 | 10310 ft | 183 kts | 163° |
| 2026-04-29 17:16 | 61.00703 | 22.10086 | 10302 ft | 181 kts | 141° |
| 2026-04-29 17:16 | 60.99674 | 22.11572 | 10302 ft | 181 kts | 141° |
| 2026-04-29 17:16 | 60.98645 | 22.13066 | 10302 ft | 181 kts | 141° |
| 2026-04-29 17:16 | 60.97617 | 22.14557 | 10302 ft | 181 kts | 141° |
| 2026-04-29 17:17 | 60.96588 | 22.16047 | 10305 ft | 181 kts | 141° |
| 2026-04-29 17:17 | 60.95556 | 22.17539 | 10305 ft | 181 kts | 141° |
| 2026-04-29 17:17 | 60.94524 | 22.19028 | 10305 ft | 181 kts | 141° |
| 2026-04-29 17:17 | 60.93492 | 22.20517 | 10305 ft | 181 kts | 141° |
| 2026-04-29 17:18 | 60.92461 | 22.22003 | 10307 ft | 181 kts | 141° |
| 2026-04-29 17:18 | 60.91443 | 22.23470 | 10308 ft | 181 kts | 141° |
| 2026-04-29 17:18 | 60.90409 | 22.24958 | 10302 ft | 181 kts | 141° |
| 2026-04-29 17:18 | 60.89377 | 22.26443 | 10302 ft | 181 kts | 141° |
| 2026-04-29 17:19 | 60.88342 | 22.27929 | 10302 ft | 181 kts | 141° |
| 2026-04-29 17:19 | 60.87310 | 22.29412 | 10302 ft | 181 kts | 141° |
| 2026-04-29 17:19 | 60.86274 | 22.30897 | 10302 ft | 181 kts | 141° |
| 2026-04-29 17:19 | 60.85241 | 22.32379 | 10301 ft | 181 kts | 141° |
| 2026-04-29 17:20 | 60.84206 | 22.33862 | 10301 ft | 181 kts | 141° |
| 2026-04-29 17:20 | 60.83173 | 22.35340 | 10301 ft | 181 kts | 141° |
| 2026-04-29 17:20 | 60.82136 | 22.36822 | 10300 ft | 181 kts | 141° |
| 2026-04-29 17:20 | 60.81104 | 22.38297 | 10300 ft | 181 kts | 141° |
| 2026-04-29 17:21 | 60.80066 | 22.39780 | 10301 ft | 181 kts | 141° |
| 2026-04-29 17:21 | 60.79033 | 22.41253 | 10301 ft | 181 kts | 141° |
| 2026-04-29 17:21 | 60.77999 | 22.42728 | 10315 ft | 181 kts | 141° |
| 2026-04-29 17:21 | 60.76925 | 22.44109 | 10305 ft | 183 kts | 150° |
| 2026-04-29 17:22 | 60.75818 | 22.45304 | 10305 ft | 182 kts | 149° |
| 2026-04-29 17:22 | 60.74700 | 22.46522 | 10305 ft | 182 kts | 149° |
| 2026-04-29 17:22 | 60.73582 | 22.47735 | 10305 ft | 182 kts | 149° |
| 2026-04-29 17:22 | 60.72464 | 22.48945 | 10230 ft | 184 kts | 150° |
| 2026-04-29 17:23 | 60.71319 | 22.50175 | 9908 ft | 187 kts | 150° |
| 2026-04-29 17:23 | 60.70163 | 22.51428 | 9584 ft | 189 kts | 150° |
| 2026-04-29 17:23 | 60.68997 | 22.52689 | 9284 ft | 189 kts | 150° |
| 2026-04-29 17:23 | 60.67860 | 22.53911 | 9013 ft | 178 kts | 150° |
| 2026-04-29 17:24 | 60.66800 | 22.55051 | 8748 ft | 170 kts | 150° |
| 2026-04-29 17:24 | 60.65743 | 22.56200 | 8492 ft | 174 kts | 150° |
| 2026-04-29 17:24 | 60.64665 | 22.57364 | 8262 ft | 176 kts | 150° |
| 2026-04-29 17:24 | 60.63583 | 22.58531 | 8022 ft | 176 kts | 150° |
| 2026-04-29 17:25 | 60.62508 | 22.59681 | 7776 ft | 169 kts | 151° |
| 2026-04-29 17:25 | 60.61489 | 22.60742 | 7460 ft | 161 kts | 156° |
| 2026-04-29 17:25 | 60.60429 | 22.61170 | 7113 ft | 151 kts | 177° |
| 2026-04-29 17:25 | 60.59390 | 22.61351 | 6749 ft | 147 kts | 178° |
| 2026-04-29 17:26 | 60.58395 | 22.61523 | 6256 ft | 141 kts | 178° |
| 2026-04-29 17:26 | 60.57427 | 22.61689 | 5759 ft | 138 kts | 179° |
| 2026-04-29 17:26 | 60.56482 | 22.61848 | 5269 ft | 134 kts | 179° |
| 2026-04-29 17:26 | 60.55594 | 22.62007 | 4936 ft | 121 kts | 176° |
| 2026-04-29 17:27 | 60.54766 | 22.62609 | 4610 ft | 132 kts | 160° |
| 2026-04-29 17:27 | 60.53913 | 22.63324 | 4281 ft | 133 kts | 160° |
| 2026-04-29 17:27 | 60.53050 | 22.63958 | 3937 ft | 132 kts | 176° |
| 2026-04-29 17:27 | 60.52215 | 22.63569 | 3665 ft | 117 kts | 223° |
| 2026-04-29 17:28 | 60.51823 | 22.62332 | 3535 ft | 99 kts | 267° |
| 2026-04-29 17:28 | 60.52003 | 22.61102 | 3401 ft | 95 kts | 311° |
| 2026-04-29 17:28 | 60.52580 | 22.60457 | 3340 ft | 93 kts | 323° |
| 2026-04-29 17:28 | 60.52874 | 22.59344 | 3272 ft | 96 kts | 277° |
| 2026-04-29 17:29 | 60.52812 | 22.57961 | 3138 ft | 99 kts | 270° |
| 2026-04-29 17:29 | 60.52752 | 22.56553 | 3000 ft | 101 kts | 270° |
| 2026-04-29 17:29 | 60.52687 | 22.55119 | 2856 ft | 103 kts | 270° |
| 2026-04-29 17:29 | 60.52644 | 22.54153 | 2760 ft | 105 kts | 270° |
| 2026-04-29 17:30 | 60.52562 | 22.52247 | 2563 ft | 92 kts | 270° |
| 2026-04-29 17:30 | 60.52507 | 22.51041 | 2446 ft | 84 kts | 270° |
| 2026-04-29 17:30 | 60.52454 | 22.49873 | 2317 ft | 83 kts | 270° |
| 2026-04-29 17:30 | 60.52400 | 22.48710 | 2207 ft | 79 kts | 269° |
| 2026-04-29 17:31 | 60.52353 | 22.47648 | 2096 ft | 73 kts | 270° |
| 2026-04-29 17:31 | 60.52308 | 22.46637 | 1994 ft | 71 kts | 270° |
| 2026-04-29 17:31 | 60.52263 | 22.45631 | 1894 ft | 73 kts | 270° |
| 2026-04-29 17:31 | 60.52218 | 22.44597 | 1787 ft | 74 kts | 269° |
| 2026-04-29 17:32 | 60.52172 | 22.43546 | 1681 ft | 75 kts | 268° |
| 2026-04-29 17:32 | 60.52125 | 22.42500 | 1577 ft | 74 kts | 269° |
| 2026-04-29 17:32 | 60.52079 | 22.41443 | 1468 ft | 75 kts | 268° |
| 2026-04-29 17:32 | 60.52034 | 22.40411 | 1370 ft | 72 kts | 269° |
| 2026-04-29 17:33 | 60.51988 | 22.39387 | 1265 ft | 72 kts | 269° |
| 2026-04-29 17:33 | 60.51943 | 22.38382 | 1162 ft | 70 kts | 270° |
| 2026-04-29 17:33 | 60.51903 | 22.37405 | 1059 ft | 71 kts | 266° |
| 2026-04-29 17:33 | 60.51858 | 22.36397 | 956 ft | 73 kts | 267° |
| 2026-04-29 17:34 | 60.51808 | 22.35365 | 850 ft | 71 kts | 268° |
| 2026-04-29 17:34 | 60.51755 | 22.34341 | 743 ft | 74 kts | 266° |
| 2026-04-29 17:34 | 60.51700 | 22.33268 | 688 ft | 77 kts | 269° |
| 2026-04-29 17:34 | 60.51668 | 22.32193 | 562 ft | 75 kts | 268° |
| 2026-04-29 17:35 | 60.51596 | 22.30804 | 427 ft | 76 kts | 269° |
| 2026-04-29 17:35 | 60.51545 | 22.29407 | 296 ft | 72 kts | 271° |
| 2026-04-29 17:35 | 60.51501 | 22.28387 | 183 ft | 73 kts | 265° |
| 2026-04-29 17:36 | 60.51466 | 22.27539 | 159 ft | 47 kts | 265° |
| 2026-04-29 17:36 | 60.51422 | 22.26627 | 282 ft | 74 kts | 267° |
| 2026-04-29 17:36 | 60.51338 | 22.25501 | 593 ft | 82 kts | 262° |
| 2026-04-29 17:36 | 60.51273 | 22.24402 | 1040 ft | 76 kts | 269° |
| 2026-04-29 17:37 | 60.51242 | 22.23315 | 1441 ft | 80 kts | 268° |
| 2026-04-29 17:37 | 60.51205 | 22.22105 | 1804 ft | 88 kts | 270° |
| 2026-04-29 17:37 | 60.51163 | 22.20855 | 2230 ft | 89 kts | 270° |
| 2026-04-29 17:37 | 60.51119 | 22.19596 | 2488 ft | 91 kts | 271° |
| 2026-04-29 17:38 | 60.51071 | 22.18305 | 2729 ft | 92 kts | 271° |
| 2026-04-29 17:38 | 60.51019 | 22.17005 | 2982 ft | 92 kts | 271° |
| 2026-04-29 17:38 | 60.50967 | 22.15696 | 3237 ft | 93 kts | 272° |
| 2026-04-29 17:38 | 60.50913 | 22.14381 | 3502 ft | 94 kts | 272° |
| 2026-04-29 17:39 | 60.50859 | 22.13060 | 3752 ft | 94 kts | 272° |
| 2026-04-29 17:39 | 60.50805 | 22.11729 | 4006 ft | 95 kts | 273° |
| 2026-04-29 17:39 | 60.50749 | 22.10388 | 4261 ft | 96 kts | 274° |
| 2026-04-29 17:39 | 60.50693 | 22.09030 | 4520 ft | 97 kts | 274° |
| 2026-04-29 17:40 | 60.50637 | 22.07660 | 4779 ft | 98 kts | 275° |
| 2026-04-29 17:40 | 60.50579 | 22.06283 | 5040 ft | 98 kts | 275° |
| 2026-04-29 17:40 | 60.50521 | 22.04896 | 5285 ft | 99 kts | 276° |
| 2026-04-29 17:40 | 60.50463 | 22.03510 | 5535 ft | 99 kts | 276° |
| 2026-04-29 17:41 | 60.50405 | 22.02118 | 5780 ft | 99 kts | 277° |
| 2026-04-29 17:41 | 60.50346 | 22.00720 | 6023 ft | 100 kts | 277° |
| 2026-04-29 17:41 | 60.50287 | 21.99315 | 6269 ft | 101 kts | 277° |
| 2026-04-29 17:41 | 60.50228 | 21.97793 | 6390 ft | 112 kts | 276° |
| 2026-04-29 17:42 | 60.50161 | 21.96237 | 6625 ft | 112 kts | 277° |
| 2026-04-29 17:42 | 60.50092 | 21.94658 | 6844 ft | 112 kts | 277° |
| 2026-04-29 17:42 | 60.50024 | 21.93073 | 7064 ft | 113 kts | 277° |
| 2026-04-29 17:42 | 60.49956 | 21.91489 | 7284 ft | 113 kts | 277° |
| 2026-04-29 17:43 | 60.49888 | 21.89895 | 7507 ft | 113 kts | 277° |
| 2026-04-29 17:43 | 60.49819 | 21.88297 | 7727 ft | 114 kts | 277° |
| 2026-04-29 17:43 | 60.49749 | 21.86686 | 7939 ft | 115 kts | 277° |
| 2026-04-29 17:43 | 60.49679 | 21.85065 | 8160 ft | 115 kts | 277° |
| 2026-04-29 17:44 | 60.49609 | 21.83439 | 8380 ft | 116 kts | 277° |
| 2026-04-29 17:44 | 60.49538 | 21.81805 | 8603 ft | 117 kts | 277° |
| 2026-04-29 17:44 | 60.49466 | 21.80163 | 8824 ft | 117 kts | 278° |
| 2026-04-29 17:44 | 60.49395 | 21.78533 | 9041 ft | 118 kts | 278° |
| 2026-04-29 17:45 | 60.49322 | 21.76874 | 9264 ft | 118 kts | 278° |
| 2026-04-29 17:45 | 60.49249 | 21.75208 | 9486 ft | 119 kts | 278° |
| 2026-04-29 17:45 | 60.49176 | 21.73530 | 9717 ft | 120 kts | 278° |
| 2026-04-29 17:45 | 60.49100 | 21.71843 | 9942 ft | 120 kts | 278° |
| 2026-04-29 17:46 | 60.49025 | 21.70150 | 10171 ft | 121 kts | 278° |
| 2026-04-29 17:46 | 60.48950 | 21.68427 | 10308 ft | 128 kts | 278° |
| 2026-04-29 17:46 | 60.48872 | 21.66532 | 10316 ft | 141 kts | 276° |
| 2026-04-29 17:46 | 60.48781 | 21.64484 | 10321 ft | 149 kts | 276° |
| 2026-04-29 17:47 | 60.48683 | 21.62344 | 10321 ft | 155 kts | 275° |
| 2026-04-29 17:47 | 60.48582 | 21.60145 | 10324 ft | 158 kts | 275° |
| 2026-04-29 17:47 | 60.48478 | 21.57908 | 10325 ft | 160 kts | 275° |
| 2026-04-29 17:47 | 60.48374 | 21.55652 | 10328 ft | 161 kts | 275° |
| 2026-04-29 17:48 | 60.48270 | 21.53380 | 10328 ft | 162 kts | 275° |
| 2026-04-29 17:48 | 60.48165 | 21.51100 | 10312 ft | 161 kts | 274° |
| 2026-04-29 17:48 | 60.48063 | 21.48896 | 10312 ft | 154 kts | 275° |
| 2026-04-29 17:48 | 60.47964 | 21.46761 | 10314 ft | 152 kts | 275° |
| 2026-04-29 17:49 | 60.47860 | 21.44621 | 10314 ft | 152 kts | 274° |
| 2026-04-29 17:49 | 60.47759 | 21.42494 | 10313 ft | 151 kts | 275° |
| 2026-04-29 17:49 | 60.47662 | 21.40377 | 10307 ft | 151 kts | 275° |
| 2026-04-29 17:49 | 60.47569 | 21.38278 | 10315 ft | 150 kts | 276° |
| 2026-04-29 17:50 | 60.47342 | 21.36144 | 10313 ft | 163 kts | 259° |
| 2026-04-29 17:50 | 60.46842 | 21.34075 | 10316 ft | 167 kts | 254° |
| 2026-04-29 17:50 | 60.46313 | 21.31937 | 10311 ft | 168 kts | 253° |
| 2026-04-29 17:50 | 60.45794 | 21.29843 | 10314 ft | 169 kts | 253° |
| 2026-04-29 17:51 | 60.45267 | 21.27715 | 10316 ft | 169 kts | 253° |
| 2026-04-29 17:51 | 60.44740 | 21.25583 | 10319 ft | 169 kts | 253° |
| 2026-04-29 17:51 | 60.44213 | 21.23454 | 10319 ft | 169 kts | 253° |
| 2026-04-29 17:51 | 60.43685 | 21.21321 | 10319 ft | 170 kts | 253° |
| 2026-04-29 17:52 | 60.43156 | 21.19189 | 10312 ft | 170 kts | 253° |
| 2026-04-29 17:52 | 60.42798 | 21.17744 | 10313 ft | 170 kts | 253° |
| 2026-04-29 17:52 | 60.42095 | 21.14916 | 10319 ft | 170 kts | 253° |
| 2026-04-29 17:52 | 60.41564 | 21.12779 | 10312 ft | 170 kts | 253° |
| 2026-04-29 17:53 | 60.41033 | 21.10645 | 10317 ft | 170 kts | 253° |
| 2026-04-29 17:53 | 60.40501 | 21.08508 | 10319 ft | 170 kts | 253° |
| 2026-04-29 17:53 | 60.39967 | 21.06370 | 10314 ft | 170 kts | 253° |
| 2026-04-29 17:53 | 60.39433 | 21.04230 | 10319 ft | 170 kts | 253° |
| 2026-04-29 17:54 | 60.38899 | 21.02090 | 10310 ft | 171 kts | 253° |
| 2026-04-29 17:54 | 60.38363 | 20.99945 | 10317 ft | 170 kts | 253° |
| 2026-04-29 17:54 | 60.37830 | 20.97809 | 10316 ft | 170 kts | 253° |
| 2026-04-29 17:54 | 60.37296 | 20.95680 | 10316 ft | 170 kts | 253° |
| 2026-04-29 17:55 | 60.36769 | 20.93579 | 10319 ft | 170 kts | 253° |
| 2026-04-29 17:55 | 60.36236 | 20.91457 | 10319 ft | 170 kts | 253° |
| 2026-04-29 17:55 | 60.35701 | 20.89330 | 10314 ft | 170 kts | 253° |
| 2026-04-29 17:55 | 60.35165 | 20.87200 | 10319 ft | 170 kts | 253° |
| 2026-04-29 17:56 | 60.34630 | 20.85073 | 10312 ft | 170 kts | 253° |
| 2026-04-29 17:56 | 60.34094 | 20.82946 | 10314 ft | 170 kts | 253° |
| 2026-04-29 17:56 | 60.33559 | 20.80824 | 10310 ft | 170 kts | 253° |
| 2026-04-29 17:56 | 60.33021 | 20.78694 | 10316 ft | 170 kts | 253° |
| 2026-04-29 17:57 | 60.32484 | 20.76568 | 10314 ft | 170 kts | 253° |
| 2026-04-29 17:57 | 60.31948 | 20.74448 | 10316 ft | 170 kts | 253° |
| 2026-04-29 17:57 | 60.31409 | 20.72322 | 10316 ft | 170 kts | 253° |
| 2026-04-29 17:57 | 60.31052 | 20.70913 | 10316 ft | 170 kts | 253° |
| 2026-04-29 17:58 | 60.30333 | 20.68074 | 10321 ft | 169 kts | 252° |
| 2026-04-29 17:58 | 60.29798 | 20.65966 | 10289 ft | 168 kts | 252° |
| 2026-04-29 17:58 | 60.29282 | 20.63935 | 10014 ft | 158 kts | 253° |
| 2026-04-29 17:58 | 60.28857 | 20.61959 | 9714 ft | 148 kts | 266° |
| 2026-04-29 17:59 | 60.28670 | 20.59930 | 9425 ft | 150 kts | 270° |
| 2026-04-29 17:59 | 60.28481 | 20.57833 | 9132 ft | 154 kts | 270° |
| 2026-04-29 17:59 | 60.28291 | 20.55732 | 8791 ft | 153 kts | 270° |
| 2026-04-29 17:59 | 60.28096 | 20.53640 | 8451 ft | 147 kts | 270° |
| 2026-04-29 18:00 | 60.27921 | 20.51679 | 8112 ft | 137 kts | 271° |
| 2026-04-29 18:00 | 60.27755 | 20.49830 | 7774 ft | 131 kts | 271° |
| 2026-04-29 18:00 | 60.27595 | 20.48085 | 7430 ft | 123 kts | 271° |
| 2026-04-29 18:00 | 60.27445 | 20.46445 | 7103 ft | 115 kts | 272° |
| 2026-04-29 18:01 | 60.27305 | 20.44913 | 6797 ft | 106 kts | 272° |
| 2026-04-29 18:01 | 60.27179 | 20.43546 | 6510 ft | 97 kts | 273° |
| 2026-04-29 18:01 | 60.27061 | 20.42240 | 6210 ft | 92 kts | 273° |
| 2026-04-29 18:01 | 60.26944 | 20.40931 | 5937 ft | 103 kts | 272° |
| 2026-04-29 18:02 | 60.26806 | 20.39378 | 5659 ft | 121 kts | 270° |
| 2026-04-29 18:02 | 60.26647 | 20.37628 | 5387 ft | 132 kts | 268° |
| 2026-04-29 18:02 | 60.26475 | 20.35760 | 5107 ft | 139 kts | 268° |
| 2026-04-29 18:02 | 60.26309 | 20.33993 | 4810 ft | 119 kts | 269° |
| 2026-04-29 18:03 | 60.26165 | 20.32456 | 4509 ft | 104 kts | 270° |
| 2026-04-29 18:03 | 60.26035 | 20.31044 | 4224 ft | 106 kts | 270° |
| 2026-04-29 18:03 | 60.25899 | 20.29543 | 3947 ft | 110 kts | 269° |
| 2026-04-29 18:03 | 60.25755 | 20.28006 | 3666 ft | 112 kts | 268° |
| 2026-04-29 18:04 | 60.25618 | 20.26521 | 3370 ft | 105 kts | 269° |
| 2026-04-29 18:04 | 60.25486 | 20.25078 | 3085 ft | 111 kts | 269° |
| 2026-04-29 18:04 | 60.25338 | 20.23466 | 2805 ft | 118 kts | 268° |
| 2026-04-29 18:04 | 60.25195 | 20.21957 | 2506 ft | 102 kts | 269° |
| 2026-04-29 18:05 | 60.25072 | 20.20635 | 2222 ft | 96 kts | 269° |
| 2026-04-29 18:05 | 60.25000 | 20.19269 | 2003 ft | 95 kts | 284° |
| 2026-04-29 18:05 | 60.25166 | 20.18048 | 1997 ft | 88 kts | 300° |
| 2026-04-29 18:05 | 60.25405 | 20.16943 | 1998 ft | 84 kts | 298° |
| 2026-04-29 18:06 | 60.25633 | 20.15869 | 2000 ft | 85 kts | 298° |
| 2026-04-29 18:06 | 60.25876 | 20.14754 | 2000 ft | 89 kts | 298° |
| 2026-04-29 18:06 | 60.26126 | 20.13609 | 2000 ft | 89 kts | 299° |
| 2026-04-29 18:06 | 60.26376 | 20.12452 | 2001 ft | 92 kts | 297° |
| 2026-04-29 18:07 | 60.26633 | 20.11265 | 2008 ft | 93 kts | 298° |
| 2026-04-29 18:07 | 60.26901 | 20.10052 | 2007 ft | 96 kts | 298° |
| 2026-04-29 18:07 | 60.27176 | 20.08828 | 2015 ft | 94 kts | 299° |
| 2026-04-29 18:07 | 60.27442 | 20.07651 | 1996 ft | 90 kts | 300° |
| 2026-04-29 18:08 | 60.27694 | 20.06527 | 1995 ft | 86 kts | 300° |
| 2026-04-29 18:08 | 60.27939 | 20.05437 | 1993 ft | 85 kts | 299° |
| 2026-04-29 18:08 | 60.27972 | 20.04259 | 1987 ft | 93 kts | 260° |
| 2026-04-29 18:08 | 60.27520 | 20.03205 | 2004 ft | 106 kts | 230° |
| 2026-04-29 18:09 | 60.26848 | 20.02465 | 1995 ft | 110 kts | 217° |
| 2026-04-29 18:09 | 60.26160 | 20.01794 | 1999 ft | 109 kts | 215° |
| 2026-04-29 18:09 | 60.25476 | 20.01172 | 1996 ft | 107 kts | 214° |
| 2026-04-29 18:09 | 60.24803 | 20.00570 | 1996 ft | 105 kts | 214° |
| 2026-04-29 18:10 | 60.24140 | 19.99989 | 1999 ft | 104 kts | 213° |
| 2026-04-29 18:10 | 60.23477 | 19.99421 | 1995 ft | 104 kts | 213° |
| 2026-04-29 18:10 | 60.22837 | 19.98879 | 2004 ft | 95 kts | 214° |
| 2026-04-29 18:10 | 60.22233 | 19.98360 | 2003 ft | 95 kts | 214° |
| 2026-04-29 18:11 | 60.21628 | 19.97839 | 2003 ft | 95 kts | 215° |
| 2026-04-29 18:11 | 60.21021 | 19.97322 | 2004 ft | 95 kts | 214° |
| 2026-04-29 18:11 | 60.20406 | 19.96796 | 1968 ft | 99 kts | 214° |
| 2026-04-29 18:11 | 60.19752 | 19.96229 | 1811 ft | 105 kts | 213° |
| 2026-04-29 18:12 | 60.19086 | 19.95658 | 1636 ft | 101 kts | 212° |
| 2026-04-29 18:12 | 60.18495 | 19.95160 | 1488 ft | 92 kts | 213° |
| 2026-04-29 18:12 | 60.17888 | 19.94664 | 1329 ft | 95 kts | 209° |
| 2026-04-29 18:12 | 60.17290 | 19.94214 | 1225 ft | 90 kts | 211° |
| 2026-04-29 18:13 | 60.16717 | 19.93715 | 1074 ft | 91 kts | 212° |
| 2026-04-29 18:13 | 60.16145 | 19.93193 | 898 ft | 88 kts | 208° |
| 2026-04-29 18:13 | 60.15574 | 19.92742 | 760 ft | 87 kts | 207° |
| 2026-04-29 18:13 | 60.15031 | 19.92260 | 597 ft | 85 kts | 205° |
| 2026-04-29 18:14 | 60.14484 | 19.91805 | 452 ft | 85 kts | 205° |
| 2026-04-29 18:14 | 60.13954 | 19.91340 | 323 ft | 83 kts | 206° |
| 2026-04-29 18:14 | 60.13429 | 19.90862 | 204 ft | 82 kts | 207° |
| 2026-04-29 18:14 | 60.12896 | 19.90407 | 49 ft | 84 kts | 205° |
| 2026-04-29 18:15 | 60.12491 | 19.90051 | 12 ft | 39 kts | 205° |
| 2026-04-29 18:15 | 60.12296 | 19.89901 | 10 ft | 15 kts | 196° |
| 2026-04-29 18:15 | 60.12321 | 19.89913 | 11 ft | 16 kts | 21° |
| 2026-04-29 18:15 | 60.12465 | 19.90041 | 12 ft | 23 kts | 26° |
| 2026-04-29 18:16 | 60.12558 | 19.90187 | 10 ft | 16 kts | 92° |
| 2026-04-29 18:16 | 60.12517 | 19.90390 | 10 ft | 15 kts | 114° |
| 2026-04-29 18:16 | 60.12497 | 19.90490 | 11 ft | 2 kts | 115° |
| 2026-04-29 18:16 | 60.12449 | 19.90553 | 11 ft | 12 kts | 137° |
| 2026-04-29 18:17 | 60.12426 | 19.90647 | 11 ft | 1 kts | 114° |
| 2026-04-29 18:17 | 60.12426 | 19.90649 | 11 ft | 0 kts | 113° |